sensor_id;sensor_type;location;lat;lon;timestamp;temperature;humidity
35246;DHT22;21379;50.962;6.960;2023-07-29T00:01:48;19.60;99.90
35246;DHT22;21379;50.962;6.960;2023-07-29T00:04:16;19.70;99.90
35246;DHT22;21379;50.962;6.960;2023-07-29T00:06:44;19.70;99.90
35246;DHT22;21379;50.962;6.960;2023-07-29T00:09:11;19.70;99.90
35246;DHT22;21379;50.962;6.960;2023-07-29T00:11:38;19.60;99.90
35246;DHT22;21379;50.962;6.960;2023-07-29T00:14:05;19.60;99.90
35246;DHT22;21379;50.962;6.960;2023-07-29T00:16:32;19.60;99.90
35246;DHT22;21379;50.962;6.960;2023-07-29T00:18:58;19.60;99.90
35246;DHT22;21379;50.962;6.960;2023-07-29T00:21:27;19.60;99.90
35246;DHT22;21379;50.962;6.960;2023-07-29T00:23:54;19.50;99.90
35246;DHT22;21379;50.962;6.960;2023-07-29T00:26:23;19.50;99.90
35246;DHT22;21379;50.962;6.960;2023-07-29T00:28:51;19.50;99.90
35246;DHT22;21379;50.962;6.960;2023-07-29T00:31:18;19.50;99.90
35246;DHT22;21379;50.962;6.960;2023-07-29T00:33:45;19.50;99.90
35246;DHT22;21379;50.962;6.960;2023-07-29T00:36:14;19.50;99.90
35246;DHT22;21379;50.962;6.960;2023-07-29T00:38:42;19.50;99.90
35246;DHT22;21379;50.962;6.960;2023-07-29T00:41:10;19.50;99.90
35246;DHT22;21379;50.962;6.960;2023-07-29T00:43:41;19.50;99.90
35246;DHT22;21379;50.962;6.960;2023-07-29T00:46:09;19.40;99.90
35246;DHT22;21379;50.962;6.960;2023-07-29T00:48:36;19.30;99.90
35246;DHT22;21379;50.962;6.960;2023-07-29T00:51:04;19.30;99.90
35246;DHT22;21379;50.962;6.960;2023-07-29T00:53:31;19.30;99.90
35246;DHT22;21379;50.962;6.960;2023-07-29T00:56:00;19.30;99.90
35246;DHT22;21379;50.962;6.960;2023-07-29T00:58:27;19.30;99.90
35246;DHT22;21379;50.962;6.960;2023-07-29T01:00:55;19.30;99.90
35246;DHT22;21379;50.962;6.960;2023-07-29T01:03:23;19.30;99.90
35246;DHT22;21379;50.962;6.960;2023-07-29T01:05:59;19.20;99.90
35246;DHT22;21379;50.962;6.960;2023-07-29T01:08:33;19.20;99.90
35246;DHT22;21379;50.962;6.960;2023-07-29T01:11:14;19.20;99.90
35246;DHT22;21379;50.962;6.960;2023-07-29T01:13:52;19.20;99.90
35246;DHT22;21379;50.962;6.960;2023-07-29T01:16:24;19.30;99.90
35246;DHT22;21379;50.962;6.960;2023-07-29T01:18:54;19.20;99.90
35246;DHT22;21379;50.962;6.960;2023-07-29T01:21:22;19.20;99.90
35246;DHT22;21379;50.962;6.960;2023-07-29T01:23:53;19.20;99.90
35246;DHT22;21379;50.962;6.960;2023-07-29T01:26:24;19.20;99.90
35246;DHT22;21379;50.962;6.960;2023-07-29T01:28:52;19.10;99.90
35246;DHT22;21379;50.962;6.960;2023-07-29T01:31:25;19.10;99.90
35246;DHT22;21379;50.962;6.960;2023-07-29T01:33:59;19.10;99.90
35246;DHT22;21379;50.962;6.960;2023-07-29T01:36:29;19.20;99.90
35246;DHT22;21379;50.962;6.960;2023-07-29T01:39:02;19.20;99.90
35246;DHT22;21379;50.962;6.960;2023-07-29T01:41:30;19.10;99.90
35246;DHT22;21379;50.962;6.960;2023-07-29T01:43:57;19.20;99.90
35246;DHT22;21379;50.962;6.960;2023-07-29T01:46:25;19.20;99.90
35246;DHT22;21379;50.962;6.960;2023-07-29T01:48:52;19.10;99.90
35246;DHT22;21379;50.962;6.960;2023-07-29T01:51:19;19.20;99.90
35246;DHT22;21379;50.962;6.960;2023-07-29T01:53:47;19.10;99.90
35246;DHT22;21379;50.962;6.960;2023-07-29T01:56:15;19.10;99.90
35246;DHT22;21379;50.962;6.960;2023-07-29T01:58:50;19.10;99.90
35246;DHT22;21379;50.962;6.960;2023-07-29T02:01:17;19.20;99.90
35246;DHT22;21379;50.962;6.960;2023-07-29T02:03:44;19.10;99.90
35246;DHT22;21379;50.962;6.960;2023-07-29T02:06:10;19.20;99.90
35246;DHT22;21379;50.962;6.960;2023-07-29T02:08:38;19.30;99.90
35246;DHT22;21379;50.962;6.960;2023-07-29T02:11:06;19.20;99.90
35246;DHT22;21379;50.962;6.960;2023-07-29T02:13:34;19.20;99.90
35246;DHT22;21379;50.962;6.960;2023-07-29T02:16:01;19.10;99.90
35246;DHT22;21379;50.962;6.960;2023-07-29T02:18:28;19.20;99.90
35246;DHT22;21379;50.962;6.960;2023-07-29T02:20:55;19.10;99.90
35246;DHT22;21379;50.962;6.960;2023-07-29T02:23:22;19.10;99.90
35246;DHT22;21379;50.962;6.960;2023-07-29T02:25:50;19.00;99.90
35246;DHT22;21379;50.962;6.960;2023-07-29T02:28:17;19.10;99.90
35246;DHT22;21379;50.962;6.960;2023-07-29T02:30:45;19.10;99.90
35246;DHT22;21379;50.962;6.960;2023-07-29T02:33:13;19.00;99.90
35246;DHT22;21379;50.962;6.960;2023-07-29T02:35:40;19.00;99.90
35246;DHT22;21379;50.962;6.960;2023-07-29T02:38:07;19.00;99.90
35246;DHT22;21379;50.962;6.960;2023-07-29T02:40:34;18.90;99.90
35246;DHT22;21379;50.962;6.960;2023-07-29T02:43:01;18.90;99.90
35246;DHT22;21379;50.962;6.960;2023-07-29T02:45:27;19.00;99.90
35246;DHT22;21379;50.962;6.960;2023-07-29T02:47:56;18.90;99.90
35246;DHT22;21379;50.962;6.960;2023-07-29T02:50:23;18.90;99.90
35246;DHT22;21379;50.962;6.960;2023-07-29T02:52:50;19.00;99.90
35246;DHT22;21379;50.962;6.960;2023-07-29T02:55:17;18.90;99.90
35246;DHT22;21379;50.962;6.960;2023-07-29T02:57:44;18.90;99.90
35246;DHT22;21379;50.962;6.960;2023-07-29T03:00:12;18.90;99.90
35246;DHT22;21379;50.962;6.960;2023-07-29T03:02:40;18.90;99.90
35246;DHT22;21379;50.962;6.960;2023-07-29T03:05:09;18.90;99.90
35246;DHT22;21379;50.962;6.960;2023-07-29T03:07:36;18.80;99.90
35246;DHT22;21379;50.962;6.960;2023-07-29T03:10:04;18.80;99.90
35246;DHT22;21379;50.962;6.960;2023-07-29T03:12:32;18.80;99.90
35246;DHT22;21379;50.962;6.960;2023-07-29T03:14:59;18.80;99.90
35246;DHT22;21379;50.962;6.960;2023-07-29T03:17:26;18.80;99.90
35246;DHT22;21379;50.962;6.960;2023-07-29T03:19:53;18.80;99.90
35246;DHT22;21379;50.962;6.960;2023-07-29T03:22:22;18.80;99.90
35246;DHT22;21379;50.962;6.960;2023-07-29T03:24:48;18.70;99.90
35246;DHT22;21379;50.962;6.960;2023-07-29T03:27:15;18.70;99.90
35246;DHT22;21379;50.962;6.960;2023-07-29T03:29:42;18.70;99.90
35246;DHT22;21379;50.962;6.960;2023-07-29T03:32:11;18.70;99.90
35246;DHT22;21379;50.962;6.960;2023-07-29T03:34:37;18.70;99.90
35246;DHT22;21379;50.962;6.960;2023-07-29T03:37:06;18.70;99.90
35246;DHT22;21379;50.962;6.960;2023-07-29T03:39:34;18.80;99.90
35246;DHT22;21379;50.962;6.960;2023-07-29T03:42:01;18.80;99.90
35246;DHT22;21379;50.962;6.960;2023-07-29T03:44:28;18.80;99.90
35246;DHT22;21379;50.962;6.960;2023-07-29T03:46:56;18.80;99.90
35246;DHT22;21379;50.962;6.960;2023-07-29T03:49:23;18.70;99.90
35246;DHT22;21379;50.962;6.960;2023-07-29T03:51:50;18.80;99.90
35246;DHT22;21379;50.962;6.960;2023-07-29T03:54:17;18.70;99.90
35246;DHT22;21379;50.962;6.960;2023-07-29T03:56:45;18.70;99.90
35246;DHT22;21379;50.962;6.960;2023-07-29T03:59:12;18.70;99.90
35246;DHT22;21379;50.962;6.960;2023-07-29T04:01:39;18.60;99.90
35246;DHT22;21379;50.962;6.960;2023-07-29T04:04:06;18.60;99.90
35246;DHT22;21379;50.962;6.960;2023-07-29T04:06:33;18.60;99.90
35246;DHT22;21379;50.962;6.960;2023-07-29T04:09:00;18.60;99.90
35246;DHT22;21379;50.962;6.960;2023-07-29T04:11:27;18.60;99.90
35246;DHT22;21379;50.962;6.960;2023-07-29T04:13:55;18.60;99.90
35246;DHT22;21379;50.962;6.960;2023-07-29T04:16:22;18.60;99.90
35246;DHT22;21379;50.962;6.960;2023-07-29T04:18:49;18.60;99.90
35246;DHT22;21379;50.962;6.960;2023-07-29T04:21:16;18.60;99.90
35246;DHT22;21379;50.962;6.960;2023-07-29T04:23:43;18.50;99.90
35246;DHT22;21379;50.962;6.960;2023-07-29T04:26:10;18.40;99.90
35246;DHT22;21379;50.962;6.960;2023-07-29T04:28:37;18.40;99.90
35246;DHT22;21379;50.962;6.960;2023-07-29T04:31:05;18.50;99.90
35246;DHT22;21379;50.962;6.960;2023-07-29T04:33:32;18.50;99.90
35246;DHT22;21379;50.962;6.960;2023-07-29T04:35:59;18.50;99.90
35246;DHT22;21379;50.962;6.960;2023-07-29T04:38:30;18.50;99.90
35246;DHT22;21379;50.962;6.960;2023-07-29T04:40:58;18.60;99.90
35246;DHT22;21379;50.962;6.960;2023-07-29T04:43:27;18.50;99.90
35246;DHT22;21379;50.962;6.960;2023-07-29T04:45:54;18.50;99.90
35246;DHT22;21379;50.962;6.960;2023-07-29T04:48:23;18.50;99.90
35246;DHT22;21379;50.962;6.960;2023-07-29T04:50:50;18.50;99.90
35246;DHT22;21379;50.962;6.960;2023-07-29T04:53:16;18.60;99.90
35246;DHT22;21379;50.962;6.960;2023-07-29T04:55:43;18.60;99.90
35246;DHT22;21379;50.962;6.960;2023-07-29T04:58:10;18.60;99.90
35246;DHT22;21379;50.962;6.960;2023-07-29T05:00:37;18.70;99.90
35246;DHT22;21379;50.962;6.960;2023-07-29T05:03:04;18.70;99.90
35246;DHT22;21379;50.962;6.960;2023-07-29T05:05:33;18.70;99.90
35246;DHT22;21379;50.962;6.960;2023-07-29T05:08:01;18.70;99.90
35246;DHT22;21379;50.962;6.960;2023-07-29T05:10:28;18.80;99.90
35246;DHT22;21379;50.962;6.960;2023-07-29T05:12:54;18.70;99.90
35246;DHT22;21379;50.962;6.960;2023-07-29T05:15:21;18.80;99.90
35246;DHT22;21379;50.962;6.960;2023-07-29T05:17:48;18.70;99.90
35246;DHT22;21379;50.962;6.960;2023-07-29T05:20:15;18.80;99.90
35246;DHT22;21379;50.962;6.960;2023-07-29T05:22:43;18.70;99.90
35246;DHT22;21379;50.962;6.960;2023-07-29T05:25:10;18.80;99.90
35246;DHT22;21379;50.962;6.960;2023-07-29T05:27:37;18.80;99.90
35246;DHT22;21379;50.962;6.960;2023-07-29T05:30:05;18.90;99.90
35246;DHT22;21379;50.962;6.960;2023-07-29T05:32:33;18.90;99.90
35246;DHT22;21379;50.962;6.960;2023-07-29T05:35:00;18.90;99.90
35246;DHT22;21379;50.962;6.960;2023-07-29T05:37:27;18.90;99.90
35246;DHT22;21379;50.962;6.960;2023-07-29T05:39:55;18.90;99.90
35246;DHT22;21379;50.962;6.960;2023-07-29T05:42:22;18.90;99.90
35246;DHT22;21379;50.962;6.960;2023-07-29T05:44:49;18.90;99.90
35246;DHT22;21379;50.962;6.960;2023-07-29T05:47:19;18.80;99.90
35246;DHT22;21379;50.962;6.960;2023-07-29T05:49:46;18.80;99.90
35246;DHT22;21379;50.962;6.960;2023-07-29T05:52:14;18.90;99.90
35246;DHT22;21379;50.962;6.960;2023-07-29T05:54:41;18.80;99.90
35246;DHT22;21379;50.962;6.960;2023-07-29T05:57:10;18.90;99.90
35246;DHT22;21379;50.962;6.960;2023-07-29T05:59:37;19.00;99.90
35246;DHT22;21379;50.962;6.960;2023-07-29T06:02:05;19.00;99.90
35246;DHT22;21379;50.962;6.960;2023-07-29T06:04:32;19.10;99.90
35246;DHT22;21379;50.962;6.960;2023-07-29T06:06:59;19.10;99.90
35246;DHT22;21379;50.962;6.960;2023-07-29T06:09:26;19.00;99.90
35246;DHT22;21379;50.962;6.960;2023-07-29T06:11:53;19.10;99.90
35246;DHT22;21379;50.962;6.960;2023-07-29T06:14:21;19.10;99.90
35246;DHT22;21379;50.962;6.960;2023-07-29T06:16:48;19.20;99.90
35246;DHT22;21379;50.962;6.960;2023-07-29T06:19:15;19.20;99.90
35246;DHT22;21379;50.962;6.960;2023-07-29T06:21:42;19.20;99.90
35246;DHT22;21379;50.962;6.960;2023-07-29T06:24:09;19.20;99.90
35246;DHT22;21379;50.962;6.960;2023-07-29T06:26:36;19.10;99.90
35246;DHT22;21379;50.962;6.960;2023-07-29T06:29:03;19.10;99.90
35246;DHT22;21379;50.962;6.960;2023-07-29T06:31:31;19.00;99.90
35246;DHT22;21379;50.962;6.960;2023-07-29T06:33:58;19.00;99.90
35246;DHT22;21379;50.962;6.960;2023-07-29T06:36:25;18.90;99.90
35246;DHT22;21379;50.962;6.960;2023-07-29T06:38:52;18.80;99.90
35246;DHT22;21379;50.962;6.960;2023-07-29T06:41:19;18.80;99.90
35246;DHT22;21379;50.962;6.960;2023-07-29T06:43:46;18.80;99.90
35246;DHT22;21379;50.962;6.960;2023-07-29T06:46:13;18.80;99.90
35246;DHT22;21379;50.962;6.960;2023-07-29T06:48:41;18.70;99.90
35246;DHT22;21379;50.962;6.960;2023-07-29T06:51:08;18.70;99.90
35246;DHT22;21379;50.962;6.960;2023-07-29T06:53:35;18.70;99.90
35246;DHT22;21379;50.962;6.960;2023-07-29T06:56:02;18.60;99.90
35246;DHT22;21379;50.962;6.960;2023-07-29T06:58:29;18.60;99.90
35246;DHT22;21379;50.962;6.960;2023-07-29T07:00:55;18.70;99.90
35246;DHT22;21379;50.962;6.960;2023-07-29T07:03:22;18.80;99.90
35246;DHT22;21379;50.962;6.960;2023-07-29T07:05:51;18.90;99.90
35246;DHT22;21379;50.962;6.960;2023-07-29T07:08:18;19.00;99.90
35246;DHT22;21379;50.962;6.960;2023-07-29T07:10:46;19.20;99.90
35246;DHT22;21379;50.962;6.960;2023-07-29T07:13:13;19.20;99.90
35246;DHT22;21379;50.962;6.960;2023-07-29T07:15:40;19.10;99.90
35246;DHT22;21379;50.962;6.960;2023-07-29T07:18:07;19.30;99.90
35246;DHT22;21379;50.962;6.960;2023-07-29T07:20:35;19.40;99.90
35246;DHT22;21379;50.962;6.960;2023-07-29T07:23:03;19.70;99.90
35246;DHT22;21379;50.962;6.960;2023-07-29T07:25:34;19.70;99.90
35246;DHT22;21379;50.962;6.960;2023-07-29T07:28:01;19.80;99.90
35246;DHT22;21379;50.962;6.960;2023-07-29T07:30:28;19.90;99.90
35246;DHT22;21379;50.962;6.960;2023-07-29T07:32:55;19.70;99.90
35246;DHT22;21379;50.962;6.960;2023-07-29T07:35:22;19.70;99.90
35246;DHT22;21379;50.962;6.960;2023-07-29T07:37:48;19.70;99.90
35246;DHT22;21379;50.962;6.960;2023-07-29T07:40:17;19.70;99.90
35246;DHT22;21379;50.962;6.960;2023-07-29T07:42:44;19.70;99.90
35246;DHT22;21379;50.962;6.960;2023-07-29T07:45:11;19.70;99.90
35246;DHT22;21379;50.962;6.960;2023-07-29T07:47:37;19.70;99.90
35246;DHT22;21379;50.962;6.960;2023-07-29T07:50:05;19.70;99.90
35246;DHT22;21379;50.962;6.960;2023-07-29T07:52:32;19.50;99.90
35246;DHT22;21379;50.962;6.960;2023-07-29T07:54:59;19.70;99.90
35246;DHT22;21379;50.962;6.960;2023-07-29T07:57:27;19.70;99.90
35246;DHT22;21379;50.962;6.960;2023-07-29T07:59:54;19.80;99.90
35246;DHT22;21379;50.962;6.960;2023-07-29T08:02:21;19.80;99.90
35246;DHT22;21379;50.962;6.960;2023-07-29T08:04:47;19.60;99.90
35246;DHT22;21379;50.962;6.960;2023-07-29T08:07:14;19.90;99.90
35246;DHT22;21379;50.962;6.960;2023-07-29T08:09:41;20.00;99.90
35246;DHT22;21379;50.962;6.960;2023-07-29T08:12:08;20.10;99.90
35246;DHT22;21379;50.962;6.960;2023-07-29T08:14:36;20.20;99.90
35246;DHT22;21379;50.962;6.960;2023-07-29T08:17:04;20.60;99.90
35246;DHT22;21379;50.962;6.960;2023-07-29T08:19:31;20.60;99.90
35246;DHT22;21379;50.962;6.960;2023-07-29T08:21:58;21.00;99.90
35246;DHT22;21379;50.962;6.960;2023-07-29T08:24:25;21.50;99.90
35246;DHT22;21379;50.962;6.960;2023-07-29T08:26:52;21.60;99.90
35246;DHT22;21379;50.962;6.960;2023-07-29T08:29:18;22.00;99.90
35246;DHT22;21379;50.962;6.960;2023-07-29T08:31:47;22.00;99.90
35246;DHT22;21379;50.962;6.960;2023-07-29T08:34:14;21.70;99.90
35246;DHT22;21379;50.962;6.960;2023-07-29T08:36:41;22.50;99.90
35246;DHT22;21379;50.962;6.960;2023-07-29T08:39:08;22.40;99.90
35246;DHT22;21379;50.962;6.960;2023-07-29T08:41:40;21.70;99.90
35246;DHT22;21379;50.962;6.960;2023-07-29T08:44:11;21.60;99.90
35246;DHT22;21379;50.962;6.960;2023-07-29T08:46:39;21.50;99.90
35246;DHT22;21379;50.962;6.960;2023-07-29T08:49:07;21.20;99.90
35246;DHT22;21379;50.962;6.960;2023-07-29T08:51:35;21.00;99.90
35246;DHT22;21379;50.962;6.960;2023-07-29T08:54:02;20.90;99.90
35246;DHT22;21379;50.962;6.960;2023-07-29T08:56:30;20.50;99.90
35246;DHT22;21379;50.962;6.960;2023-07-29T08:58:57;20.30;99.90
35246;DHT22;21379;50.962;6.960;2023-07-29T09:01:26;20.50;99.90
35246;DHT22;21379;50.962;6.960;2023-07-29T09:03:53;20.60;99.90
35246;DHT22;21379;50.962;6.960;2023-07-29T09:06:21;20.50;99.90
35246;DHT22;21379;50.962;6.960;2023-07-29T09:08:51;20.60;99.90
35246;DHT22;21379;50.962;6.960;2023-07-29T09:11:20;20.70;99.90
35246;DHT22;21379;50.962;6.960;2023-07-29T09:13:47;20.60;99.90
35246;DHT22;21379;50.962;6.960;2023-07-29T09:16:14;20.60;99.90
35246;DHT22;21379;50.962;6.960;2023-07-29T09:18:41;20.60;99.90
35246;DHT22;21379;50.962;6.960;2023-07-29T09:21:08;20.30;99.90
35246;DHT22;21379;50.962;6.960;2023-07-29T09:23:41;20.30;99.90
35246;DHT22;21379;50.962;6.960;2023-07-29T09:26:08;20.30;99.90
35246;DHT22;21379;50.962;6.960;2023-07-29T09:28:36;20.20;99.90
35246;DHT22;21379;50.962;6.960;2023-07-29T09:31:03;20.20;99.90
35246;DHT22;21379;50.962;6.960;2023-07-29T09:33:33;20.30;99.90
35246;DHT22;21379;50.962;6.960;2023-07-29T09:36:03;20.50;99.90
35246;DHT22;21379;50.962;6.960;2023-07-29T09:38:30;20.60;99.90
35246;DHT22;21379;50.962;6.960;2023-07-29T09:40:59;20.60;99.90
35246;DHT22;21379;50.962;6.960;2023-07-29T09:43:29;20.70;99.90
35246;DHT22;21379;50.962;6.960;2023-07-29T09:46:00;20.70;99.90
35246;DHT22;21379;50.962;6.960;2023-07-29T09:48:28;20.80;99.90
35246;DHT22;21379;50.962;6.960;2023-07-29T09:50:55;20.90;99.90
35246;DHT22;21379;50.962;6.960;2023-07-29T09:53:22;20.90;99.90
35246;DHT22;21379;50.962;6.960;2023-07-29T09:55:49;21.10;99.90
35246;DHT22;21379;50.962;6.960;2023-07-29T09:58:26;21.00;99.90
35246;DHT22;21379;50.962;6.960;2023-07-29T10:00:53;21.30;99.90
35246;DHT22;21379;50.962;6.960;2023-07-29T10:03:21;21.30;99.90
35246;DHT22;21379;50.962;6.960;2023-07-29T10:05:48;21.30;99.90
35246;DHT22;21379;50.962;6.960;2023-07-29T10:08:16;21.20;99.90
35246;DHT22;21379;50.962;6.960;2023-07-29T10:10:45;21.50;99.90
35246;DHT22;21379;50.962;6.960;2023-07-29T10:13:12;22.50;99.90
35246;DHT22;21379;50.962;6.960;2023-07-29T10:15:41;23.20;99.90
35246;DHT22;21379;50.962;6.960;2023-07-29T10:18:08;23.40;99.90
35246;DHT22;21379;50.962;6.960;2023-07-29T10:20:35;23.20;99.90
35246;DHT22;21379;50.962;6.960;2023-07-29T10:23:06;23.10;99.90
35246;DHT22;21379;50.962;6.960;2023-07-29T10:25:38;23.00;99.90
35246;DHT22;21379;50.962;6.960;2023-07-29T10:28:08;22.50;99.90
35246;DHT22;21379;50.962;6.960;2023-07-29T10:30:36;22.30;99.90
35246;DHT22;21379;50.962;6.960;2023-07-29T10:33:05;21.80;99.90
35246;DHT22;21379;50.962;6.960;2023-07-29T10:35:32;21.90;99.90
35246;DHT22;21379;50.962;6.960;2023-07-29T10:38:00;21.80;99.90
35246;DHT22;21379;50.962;6.960;2023-07-29T10:40:43;21.70;99.90
35246;DHT22;21379;50.962;6.960;2023-07-29T10:43:12;21.40;99.90
35246;DHT22;21379;50.962;6.960;2023-07-29T10:45:41;21.30;99.90
35246;DHT22;21379;50.962;6.960;2023-07-29T10:48:12;21.10;99.90
35246;DHT22;21379;50.962;6.960;2023-07-29T10:50:39;21.00;99.90
35246;DHT22;21379;50.962;6.960;2023-07-29T10:53:06;20.70;99.90
35246;DHT22;21379;50.962;6.960;2023-07-29T10:55:35;20.60;99.90
35246;DHT22;21379;50.962;6.960;2023-07-29T10:58:07;20.60;99.90
35246;DHT22;21379;50.962;6.960;2023-07-29T11:00:35;20.60;99.90
35246;DHT22;21379;50.962;6.960;2023-07-29T11:03:03;20.80;99.90
35246;DHT22;21379;50.962;6.960;2023-07-29T11:05:47;20.90;99.90
35246;DHT22;21379;50.962;6.960;2023-07-29T11:08:23;21.10;99.90
35246;DHT22;21379;50.962;6.960;2023-07-29T11:11:14;21.20;99.90
35246;DHT22;21379;50.962;6.960;2023-07-29T11:13:40;21.30;99.90
35246;DHT22;21379;50.962;6.960;2023-07-29T11:16:10;21.30;99.90
35246;DHT22;21379;50.962;6.960;2023-07-29T11:18:37;21.60;99.90
35246;DHT22;21379;50.962;6.960;2023-07-29T11:21:06;21.80;99.90
35246;DHT22;21379;50.962;6.960;2023-07-29T11:23:34;21.50;99.90
35246;DHT22;21379;50.962;6.960;2023-07-29T11:26:03;21.50;99.90
35246;DHT22;21379;50.962;6.960;2023-07-29T11:28:30;21.60;99.90
35246;DHT22;21379;50.962;6.960;2023-07-29T11:30:57;21.90;99.90
35246;DHT22;21379;50.962;6.960;2023-07-29T11:33:25;22.60;99.90
35246;DHT22;21379;50.962;6.960;2023-07-29T11:35:54;22.70;99.90
35246;DHT22;21379;50.962;6.960;2023-07-29T11:38:22;22.70;99.90
35246;DHT22;21379;50.962;6.960;2023-07-29T11:40:57;22.70;99.90
35246;DHT22;21379;50.962;6.960;2023-07-29T11:43:24;22.90;99.90
35246;DHT22;21379;50.962;6.960;2023-07-29T11:45:52;23.40;99.90
35246;DHT22;21379;50.962;6.960;2023-07-29T11:48:26;23.00;99.90
35246;DHT22;21379;50.962;6.960;2023-07-29T11:50:54;23.50;99.90
35246;DHT22;21379;50.962;6.960;2023-07-29T11:53:25;23.20;99.90
35246;DHT22;21379;50.962;6.960;2023-07-29T11:55:52;23.30;99.90
35246;DHT22;21379;50.962;6.960;2023-07-29T11:58:20;23.90;99.90
35246;DHT22;21379;50.962;6.960;2023-07-29T12:00:48;23.70;99.90
35246;DHT22;21379;50.962;6.960;2023-07-29T12:03:16;23.40;99.90
35246;DHT22;21379;50.962;6.960;2023-07-29T12:05:44;23.30;99.90
35246;DHT22;21379;50.962;6.960;2023-07-29T12:08:11;23.70;99.90
35246;DHT22;21379;50.962;6.960;2023-07-29T12:10:40;24.00;99.90
35246;DHT22;21379;50.962;6.960;2023-07-29T12:13:08;24.40;99.90
35246;DHT22;21379;50.962;6.960;2023-07-29T12:15:38;24.60;99.90
35246;DHT22;21379;50.962;6.960;2023-07-29T12:18:05;25.40;99.90
35246;DHT22;21379;50.962;6.960;2023-07-29T12:20:32;25.80;99.90
35246;DHT22;21379;50.962;6.960;2023-07-29T12:22:59;25.00;99.90
35246;DHT22;21379;50.962;6.960;2023-07-29T12:25:28;24.90;99.90
35246;DHT22;21379;50.962;6.960;2023-07-29T12:27:57;25.30;99.90
35246;DHT22;21379;50.962;6.960;2023-07-29T12:30:28;25.70;99.90
35246;DHT22;21379;50.962;6.960;2023-07-29T12:32:55;26.00;99.90
35246;DHT22;21379;50.962;6.960;2023-07-29T12:35:22;26.20;99.90
35246;DHT22;21379;50.962;6.960;2023-07-29T12:37:58;26.40;99.90
35246;DHT22;21379;50.962;6.960;2023-07-29T12:40:26;26.40;99.90
35246;DHT22;21379;50.962;6.960;2023-07-29T12:42:53;26.40;99.90
35246;DHT22;21379;50.962;6.960;2023-07-29T12:45:22;26.80;99.90
35246;DHT22;21379;50.962;6.960;2023-07-29T12:47:52;26.10;99.90
35246;DHT22;21379;50.962;6.960;2023-07-29T12:50:19;26.30;99.90
35246;DHT22;21379;50.962;6.960;2023-07-29T12:52:46;25.80;99.90
35246;DHT22;21379;50.962;6.960;2023-07-29T12:55:13;24.60;99.90
35246;DHT22;21379;50.962;6.960;2023-07-29T12:57:41;24.40;99.90
35246;DHT22;21379;50.962;6.960;2023-07-29T13:00:10;24.00;99.90
35246;DHT22;21379;50.962;6.960;2023-07-29T13:02:38;23.90;99.90
35246;DHT22;21379;50.962;6.960;2023-07-29T13:05:09;23.80;99.90
35246;DHT22;21379;50.962;6.960;2023-07-29T13:07:37;23.90;99.90
35246;DHT22;21379;50.962;6.960;2023-07-29T13:10:04;24.30;99.90
35246;DHT22;21379;50.962;6.960;2023-07-29T13:12:32;24.40;99.90
35246;DHT22;21379;50.962;6.960;2023-07-29T13:14:59;24.30;99.90
35246;DHT22;21379;50.962;6.960;2023-07-29T13:17:25;24.40;99.90
35246;DHT22;21379;50.962;6.960;2023-07-29T13:19:54;24.30;99.90
35246;DHT22;21379;50.962;6.960;2023-07-29T13:22:21;24.10;99.90
35246;DHT22;21379;50.962;6.960;2023-07-29T13:24:48;23.50;99.90
35246;DHT22;21379;50.962;6.960;2023-07-29T13:27:14;23.50;99.90
35246;DHT22;21379;50.962;6.960;2023-07-29T13:29:41;23.10;99.90
35246;DHT22;21379;50.962;6.960;2023-07-29T13:32:09;22.80;99.90
35246;DHT22;21379;50.962;6.960;2023-07-29T13:34:36;22.70;99.90
35246;DHT22;21379;50.962;6.960;2023-07-29T13:37:06;22.60;99.90
35246;DHT22;21379;50.962;6.960;2023-07-29T13:39:33;22.40;99.90
35246;DHT22;21379;50.962;6.960;2023-07-29T13:42:00;22.20;99.90
35246;DHT22;21379;50.962;6.960;2023-07-29T13:44:27;22.00;99.90
35246;DHT22;21379;50.962;6.960;2023-07-29T13:46:54;21.80;99.90
35246;DHT22;21379;50.962;6.960;2023-07-29T13:49:21;21.20;99.90
35246;DHT22;21379;50.962;6.960;2023-07-29T13:51:47;21.30;99.90
35246;DHT22;21379;50.962;6.960;2023-07-29T13:54:17;21.10;99.90
35246;DHT22;21379;50.962;6.960;2023-07-29T13:56:44;20.90;99.90
35246;DHT22;21379;50.962;6.960;2023-07-29T13:59:10;20.60;99.90
35246;DHT22;21379;50.962;6.960;2023-07-29T14:01:37;20.60;99.90
35246;DHT22;21379;50.962;6.960;2023-07-29T14:04:04;20.70;99.90
35246;DHT22;21379;50.962;6.960;2023-07-29T14:06:32;20.70;99.90
35246;DHT22;21379;50.962;6.960;2023-07-29T14:08:59;20.70;99.90
35246;DHT22;21379;50.962;6.960;2023-07-29T14:11:27;20.50;99.90
35246;DHT22;21379;50.962;6.960;2023-07-29T14:13:54;20.80;99.90
35246;DHT22;21379;50.962;6.960;2023-07-29T14:16:21;20.90;99.90
35246;DHT22;21379;50.962;6.960;2023-07-29T14:18:48;21.10;99.90
35246;DHT22;21379;50.962;6.960;2023-07-29T14:21:15;21.30;99.90
35246;DHT22;21379;50.962;6.960;2023-07-29T14:23:42;21.50;99.90
35246;DHT22;21379;50.962;6.960;2023-07-29T14:26:08;22.20;99.90
35246;DHT22;21379;50.962;6.960;2023-07-29T14:28:37;23.00;99.90
35246;DHT22;21379;50.962;6.960;2023-07-29T14:31:04;23.70;99.90
35246;DHT22;21379;50.962;6.960;2023-07-29T14:33:31;24.40;99.90
35246;DHT22;21379;50.962;6.960;2023-07-29T14:35:58;24.20;99.90
35246;DHT22;21379;50.962;6.960;2023-07-29T14:38:25;24.30;99.90
35246;DHT22;21379;50.962;6.960;2023-07-29T14:40:52;24.40;99.90
35246;DHT22;21379;50.962;6.960;2023-07-29T14:43:21;24.10;99.90
35246;DHT22;21379;50.962;6.960;2023-07-29T14:45:49;23.60;99.90
35246;DHT22;21379;50.962;6.960;2023-07-29T14:48:16;23.20;99.90
35246;DHT22;21379;50.962;6.960;2023-07-29T14:50:43;22.80;99.90
35246;DHT22;21379;50.962;6.960;2023-07-29T14:53:10;22.20;99.90
35246;DHT22;21379;50.962;6.960;2023-07-29T14:55:37;22.40;99.90
35246;DHT22;21379;50.962;6.960;2023-07-29T14:58:04;22.40;99.90
35246;DHT22;21379;50.962;6.960;2023-07-29T15:00:31;22.20;99.90
35246;DHT22;21379;50.962;6.960;2023-07-29T15:03:00;22.20;99.90
35246;DHT22;21379;50.962;6.960;2023-07-29T15:05:27;22.20;99.90
35246;DHT22;21379;50.962;6.960;2023-07-29T15:07:54;21.90;99.90
35246;DHT22;21379;50.962;6.960;2023-07-29T15:10:21;21.70;99.90
35246;DHT22;21379;50.962;6.960;2023-07-29T15:12:48;21.70;99.90
35246;DHT22;21379;50.962;6.960;2023-07-29T15:15:15;21.20;99.90
35246;DHT22;21379;50.962;6.960;2023-07-29T15:17:42;21.20;99.90
35246;DHT22;21379;50.962;6.960;2023-07-29T15:20:11;21.30;99.90
35246;DHT22;21379;50.962;6.960;2023-07-29T15:22:38;21.50;99.90
35246;DHT22;21379;50.962;6.960;2023-07-29T15:25:05;21.50;99.90
35246;DHT22;21379;50.962;6.960;2023-07-29T15:27:32;21.40;99.90
35246;DHT22;21379;50.962;6.960;2023-07-29T15:29:59;21.70;99.90
35246;DHT22;21379;50.962;6.960;2023-07-29T15:32:26;21.80;99.90
35246;DHT22;21379;50.962;6.960;2023-07-29T15:34:53;21.70;99.90